createdAt,value
2022-10-22T05:11:55.772Z,7.63
2022-10-22T05:14:24.343Z,7.20
2022-10-22T05:16:52.212Z,6.95
2022-10-22T05:19:36.840Z,7.00
2022-10-22T05:22:04.418Z,6.95
2022-10-22T05:24:32.495Z,6.93
2022-10-22T05:26:59.648Z,6.75
2022-10-22T05:29:27.051Z,6.55
2022-10-22T05:31:53.475Z,7.28
2022-10-22T05:34:20.164Z,6.72
2022-10-22T05:36:46.643Z,7.63
2022-10-22T05:39:13.293Z,6.32
2022-10-22T05:41:39.789Z,7.13
2022-10-22T05:44:06.288Z,7.28
2022-10-22T05:46:35.612Z,7.57
2022-10-22T05:49:04.592Z,7.27
2022-10-22T05:51:34.291Z,6.93
2022-10-22T05:54:02.661Z,8.23
2022-10-22T05:56:31.999Z,7.28
2022-10-22T05:58:58.825Z,6.95
2022-10-22T06:01:30.299Z,7.97
2022-10-22T06:03:59.265Z,6.68
2022-10-22T06:06:30.705Z,7.68
2022-10-22T06:09:00.803Z,7.53
2022-10-22T06:11:28.927Z,7.70
2022-10-22T06:13:58.848Z,7.30
2022-10-22T06:16:25.282Z,7.30
2022-10-22T06:18:51.715Z,7.28
2022-10-22T06:21:18.203Z,7.43
2022-10-22T06:23:44.656Z,8.43
2022-10-22T06:26:11.531Z,7.80
2022-10-22T06:28:38.688Z,8.00
2022-10-22T06:31:05.801Z,7.50
2022-10-22T06:33:34.246Z,8.40
2022-10-22T06:36:14.514Z,7.60
2022-10-22T06:38:41.405Z,7.20
2022-10-22T06:41:16.218Z,7.43
2022-10-22T06:43:49.519Z,7.57
2022-10-22T06:46:19.989Z,7.43
2022-10-22T06:48:51.871Z,7.28
2022-10-22T06:51:18.927Z,7.60
2022-10-22T06:53:45.383Z,7.72
2022-10-22T06:56:13.939Z,7.72
2022-10-22T06:58:40.566Z,7.43
2022-10-22T07:01:13.141Z,7.47
2022-10-22T07:03:40.814Z,7.77
2022-10-22T07:06:10.001Z,8.15
2022-10-22T07:08:36.801Z,8.38
2022-10-22T07:11:07.897Z,8.57
2022-10-22T07:13:34.463Z,7.90
2022-10-22T07:16:00.998Z,7.83
2022-10-22T07:18:27.498Z,8.57
2022-10-22T07:20:54.012Z,9.07
2022-10-22T07:23:20.437Z,8.02
2022-10-22T07:25:47.169Z,8.30
2022-10-22T07:28:13.801Z,8.50
2022-10-22T07:30:40.689Z,8.20
2022-10-22T07:33:07.558Z,9.18
2022-10-22T07:35:34.470Z,8.95
2022-10-22T07:38:01.270Z,8.65
2022-10-22T07:40:27.811Z,8.07
2022-10-22T07:42:54.542Z,9.00
2022-10-22T07:45:20.967Z,9.00
2022-10-22T07:47:48.086Z,8.80
2022-10-22T07:50:15.286Z,7.78
2022-10-22T07:52:42.101Z,9.13
2022-10-22T07:55:09.024Z,8.20
2022-10-22T07:57:37.150Z,8.77
2022-10-22T08:00:08.683Z,8.45
2022-10-22T08:02:35.501Z,8.85
2022-10-22T08:05:01.943Z,8.90
2022-10-22T08:07:28.455Z,8.68
2022-10-22T08:09:55.015Z,9.13
2022-10-22T08:12:21.617Z,10.07
2022-10-22T08:14:48.048Z,8.60
2022-10-22T08:17:14.718Z,10.53
2022-10-22T08:19:41.155Z,9.90
2022-10-22T08:22:08.026Z,9.88
2022-10-22T08:24:34.707Z,9.52
2022-10-22T08:27:01.127Z,9.68
2022-10-22T08:29:27.835Z,8.97
2022-10-22T08:31:54.755Z,9.45
2022-10-22T08:34:21.202Z,9.57
2022-10-22T08:36:47.735Z,9.63
2022-10-22T08:39:14.526Z,9.98
2022-10-22T08:41:59.190Z,10.33
2022-10-22T08:44:54.826Z,9.90
2022-10-22T08:47:45.983Z,10.27
2022-10-22T08:50:16.332Z,10.90
2022-10-22T08:52:44.779Z,9.85
2022-10-22T08:55:15.644Z,10.47
2022-10-22T08:58:06.102Z,10.43
2022-10-22T09:00:32.482Z,10.68
2022-10-22T09:03:20.914Z,10.25
2022-10-22T09:06:05.534Z,11.10
2022-10-22T09:08:32.080Z,10.30
2022-10-22T09:11:13.725Z,10.55
2022-10-22T09:13:41.715Z,9.80
2022-10-22T09:16:36.801Z,10.57
2022-10-22T09:19:28.526Z,10.23
2022-10-22T09:22:19.723Z,11.17
2022-10-22T09:24:48.597Z,9.90
2022-10-22T09:27:16.319Z,10.75
2022-10-22T09:29:44.177Z,10.27
2022-10-22T09:32:10.840Z,10.35
2022-10-22T09:34:37.385Z,10.30
2022-10-22T09:37:07.335Z,10.68
2022-10-22T09:39:54.890Z,10.63
2022-10-22T09:42:22.246Z,9.90
2022-10-22T09:44:58.003Z,10.48
2022-10-22T09:47:43.405Z,9.83
2022-10-22T09:50:28.693Z,10.38
2022-10-22T09:53:17.322Z,11.43
2022-10-22T09:55:44.426Z,10.68
2022-10-22T09:58:13.134Z,11.48
2022-10-22T10:00:40.967Z,11.00
2022-10-22T10:03:12.609Z,11.52
2022-10-22T10:05:41.218Z,12.07
2022-10-22T10:08:16.226Z,11.95
2022-10-22T10:10:47.713Z,11.38
2022-10-22T10:13:33.405Z,11.27
2022-10-22T10:16:18.991Z,11.38
2022-10-22T10:19:09.728Z,11.30
2022-10-22T10:21:42.473Z,12.13
2022-10-22T10:24:24.410Z,11.82
2022-10-22T10:27:15.622Z,11.43
2022-10-22T10:29:47.909Z,12.02
2022-10-22T10:32:39.638Z,12.50
2022-10-22T10:35:28.093Z,11.70
2022-10-22T10:38:19.590Z,12.68
2022-10-22T10:41:31.370Z,12.13
2022-10-22T10:44:29.468Z,12.80
2022-10-22T10:47:26.194Z,11.70
2022-10-22T10:50:05.382Z,11.70
2022-10-22T10:52:41.807Z,11.73
2022-10-22T10:55:36.335Z,12.10
2022-10-22T10:58:14.474Z,12.20
2022-10-22T11:00:57.927Z,12.60
2022-10-22T11:03:41.514Z,14.27
2022-10-22T11:06:10.290Z,12.68
2022-10-22T11:08:45.383Z,12.53
2022-10-22T11:11:24.154Z,12.18
2022-10-22T11:13:59.306Z,12.50
2022-10-22T11:16:36.789Z,12.82
2022-10-22T11:19:10.063Z,12.27
2022-10-22T11:22:05.006Z,13.17
2022-10-22T11:24:39.581Z,13.00
2022-10-22T11:27:18.343Z,13.05
2022-10-22T11:29:52.449Z,13.40
2022-10-22T11:32:21.309Z,12.80
2022-10-22T11:34:50.958Z,13.00
2022-10-22T11:37:18.931Z,14.27
2022-10-22T11:39:50.043Z,12.90
2022-10-22T11:42:46.771Z,13.98
2022-10-22T11:45:13.178Z,13.35
2022-10-22T11:48:14.973Z,13.00
2022-10-22T11:50:41.374Z,12.73
2022-10-22T11:53:13.928Z,12.85
2022-10-22T11:55:46.437Z,13.32
2022-10-22T11:58:30.500Z,14.60
2022-10-22T12:01:03.025Z,13.30
2022-10-22T12:03:32.407Z,12.82
2022-10-22T12:06:05.003Z,12.73
2022-10-22T12:08:32.809Z,13.55
2022-10-22T12:11:11.885Z,13.60
2022-10-22T12:14:02.948Z,13.63
2022-10-22T12:16:50.927Z,14.00
2022-10-22T12:19:32.621Z,13.52
2022-10-22T12:22:08.906Z,13.88
2022-10-22T12:24:38.396Z,13.88
2022-10-22T12:27:08.230Z,13.90
2022-10-22T12:29:35.127Z,13.63
2022-10-22T12:32:04.640Z,13.63
2022-10-22T12:34:31.069Z,12.73
2022-10-22T12:36:57.584Z,12.93
2022-10-22T12:39:27.868Z,12.53
2022-10-22T12:41:55.158Z,12.88
